Time;durP1;ratioP1;P1;durP2;ratioP2;P2;SDS_P1;SDS_P2;PMS_P1;PMS_P2;Temp;Humidity;BMP_temperature;BMP_pressure;BME280_temperature;BME280_humidity;BME280_pressure;Samples;Min_cycle;Max_cycle;Signal;HPM_P1;HPM_P2
2022/10/11 00:03:57;;;;;;;4.60;2.10;;;;;;;19.85;65.93;63291.50;17295354;28;20224;-31
2022/10/11 00:12:15;;;;;;;5.73;2.33;;;;;;;19.81;65.87;63284.34;17298253;28;20229;-31
2022/10/11 00:20:32;;;;;;;4.17;2.30;;;;;;;19.82;65.92;63290.75;17239467;28;20260;-31
2022/10/11 00:28:51;;;;;;;5.60;2.13;;;;;;;19.81;65.91;63286.97;17210991;28;20248;-31
2022/10/11 00:37:08;;;;;;;8.30;2.80;;;;;;;19.82;65.88;63288.13;17208900;28;20232;-31
2022/10/11 00:46:02;;;;;;;3.60;1.53;;;;;;;19.81;65.94;63286.97;17251631;28;20224;-32
2022/10/11 00:54:24;;;;;;;4.00;1.97;;;;;;;19.81;65.70;63286.97;17279882;28;20220;-31
2022/10/11 01:02:43;;;;;;;4.37;1.70;;;;;;;19.79;65.83;63279.50;17288901;28;20229;-31
2022/10/11 01:11:00;;;;;;;5.20;2.13;;;;;;;19.80;65.69;63285.84;17286889;28;20208;-32
2022/10/11 01:19:34;;;;;;;4.53;2.00;;;;;;;19.78;65.84;63286.22;17294440;28;20229;-31
2022/10/11 01:28:15;;;;;;;6.53;1.70;;;;;;;19.79;65.61;63284.72;17296366;28;20208;-32
2022/10/11 01:36:40;;;;;;;4.67;2.20;;;;;;;19.76;65.79;63278.72;17275358;28;20285;-31
2022/10/11 01:44:58;;;;;;;5.30;2.10;;;;;;;19.76;65.63;63276.66;17304348;28;20227;-31
2022/10/11 01:53:35;;;;;;;5.87;2.07;;;;;;;19.77;65.60;63283.03;17308910;28;20221;-31
2022/10/11 02:02:06;;;;;;;7.47;2.47;;;;;;;19.78;65.46;63284.16;17308718;28;20250;-31
2022/10/11 02:10:32;;;;;;;11.67;2.20;;;;;;;19.76;65.65;63281.91;17311364;28;20220;-32
2022/10/11 02:18:52;;;;;;;7.43;2.33;;;;;;;19.75;65.60;63280.78;17307738;28;20227;-31
2022/10/11 02:27:12;;;;;;;5.10;1.93;;;;;;;19.75;65.50;63280.78;17308133;28;20329;-31
2022/10/11 02:35:31;;;;;;;4.37;2.30;;;;;;;19.74;65.51;63276.47;17310000;28;20228;-31
2022/10/11 02:43:57;;;;;;;6.43;2.50;;;;;;;19.76;65.45;63281.34;17296226;28;20227;-31
2022/10/11 02:52:14;;;;;;;4.97;2.20;;;;;;;19.74;65.41;63277.03;17308388;28;20323;-31
2022/10/11 03:00:32;;;;;;;5.47;2.10;;;;;;;19.76;65.33;63276.09;17298681;28;20236;-31
2022/10/11 03:17:08;;;;;;;4.73;2.00;;;;;;;19.75;65.25;63280.22;17249181;28;20360;-34
2022/10/11 03:25:25;;;;;;;5.43;1.80;;;;;;;19.74;65.18;63281.72;17286772;28;20766;-34
2022/10/11 03:33:43;;;;;;;3.63;1.77;;;;;;;19.74;65.30;63279.09;17301273;28;20775;-33
2022/10/11 03:42:00;;;;;;;4.10;1.90;;;;;;;19.74;65.22;63279.09;17295154;28;20248;-33
2022/10/11 03:50:18;;;;;;;4.23;2.00;;;;;;;19.69;65.34;63270.84;17309820;28;20840;-33
2022/10/11 03:58:35;;;;;;;3.93;1.73;;;;;;;19.68;65.23;63272.91;17324072;28;22821;-34
2022/10/11 04:06:53;;;;;;;5.57;2.10;;;;;;;19.75;65.11;63274.97;17298920;28;20691;-34
2022/10/11 04:15:12;;;;;;;3.83;1.90;;;;;;;19.82;64.78;63288.13;17311249;28;20323;-34
2022/10/11 04:23:32;;;;;;;3.77;1.70;;;;;;;19.92;64.60;63298.81;17291250;28;20728;-34
2022/10/11 04:31:49;;;;;;;5.87;2.07;;;;;;;19.95;64.70;63302.75;17279688;28;20303;-34
2022/10/11 04:40:09;;;;;;;4.50;2.00;;;;;;;20.00;64.56;63308.38;17285278;28;20236;-34
2022/10/11 04:48:26;;;;;;;7.20;2.60;;;;;;;20.04;64.57;63311.78;17277685;28;20671;-34
2022/10/11 04:56:44;;;;;;;4.47;1.90;;;;;;;20.07;64.59;63310.47;17290527;28;20343;-34
2022/10/11 05:05:01;;;;;;;5.27;2.40;;;;;;;20.18;64.14;63324.94;17293407;28;20228;-33
2022/10/11 05:13:19;;;;;;;5.20;2.07;;;;;;;20.29;63.90;63334.72;17306347;28;20254;-34
2022/10/11 05:21:36;;;;;;;8.60;2.40;;;;;;;20.43;63.44;63352.53;17323213;28;20232;-34
2022/10/11 05:29:54;;;;;;;8.30;2.80;;;;;;;19.99;64.82;63307.28;17304797;28;20211;-34
2022/10/11 05:38:11;;;;;;;4.87;2.10;;;;;;;19.97;64.92;63302.38;17308172;28;20232;-34
2022/10/11 05:46:29;;;;;;;5.93;2.17;;;;;;;19.94;64.98;63301.63;17294068;28;20220;-34
2022/10/11 05:54:46;;;;;;;5.67;2.70;;;;;;;19.95;64.94;63300.13;17313208;28;20219;-34
2022/10/11 06:03:04;;;;;;;4.63;2.07;;;;;;;19.98;64.88;63300.88;17297733;28;20232;-34
2022/10/11 06:11:24;;;;;;;7.43;2.27;;;;;;;19.99;64.88;63307.28;17312947;28;20220;-34
2022/10/11 06:19:42;;;;;;;6.10;2.50;;;;;;;20.06;64.79;63314.03;17301177;28;20263;-34
2022/10/11 06:27:59;;;;;;;6.27;2.43;;;;;;;20.07;64.75;63312.53;17285116;28;20198;-34
2022/10/11 06:36:18;;;;;;;6.40;2.40;;;;;;;19.22;64.52;63224.22;17301062;28;20231;-35
2022/10/11 06:44:35;;;;;;;4.73;2.50;;;;;;;19.83;63.13;63289.22;17290285;28;20225;-34
2022/10/11 06:52:53;;;;;;;6.23;2.60;;;;;;;20.06;63.41;63308.78;17304951;28;20308;-34
2022/10/11 07:01:15;;;;;;;8.60;3.00;;;;;;;20.14;63.97;63317.78;17317822;22;20263;-33
2022/10/11 07:09:34;;;;;;;6.17;2.40;;;;;;;20.19;64.26;63329.22;17303777;28;20270;-33
2022/10/11 07:17:51;;;;;;;6.13;2.10;;;;;;;20.27;64.90;63337.13;17307038;28;20225;-32
2022/10/11 07:26:10;;;;;;;9.73;2.57;;;;;;;20.01;65.22;63308.94;17284363;28;20311;-34
2022/10/11 07:34:27;;;;;;;7.80;2.20;;;;;;;20.04;65.45;63306.53;17283236;28;20354;-33
2022/10/11 07:42:45;;;;;;;12.17;2.43;;;;;;;20.04;65.53;63311.78;17299036;28;20221;-32
2022/10/11 07:51:03;;;;;;;9.30;2.60;;;;;;;20.04;65.82;63306.53;17293284;28;20216;-31
2022/10/11 07:59:22;;;;;;;17.87;2.60;;;;;;;20.06;66.03;63306.16;17289355;28;20240;-32
2022/10/11 08:07:38;;;;;;;9.00;2.70;;;;;;;20.06;66.13;63311.41;17294859;28;20217;-32
2022/10/11 08:15:57;;;;;;;7.13;2.40;;;;;;;20.03;66.58;63305.41;17288265;28;20193;-32
2022/10/11 08:24:14;;;;;;;6.57;2.30;;;;;;;20.09;66.74;63314.78;17280896;28;20229;-32
2022/10/11 08:32:32;;;;;;;6.50;2.00;;;;;;;20.12;66.74;63320.78;17296913;28;20292;-32
2022/10/11 08:40:50;;;;;;;14.60;2.60;;;;;;;20.15;66.64;63324.19;17293003;28;20228;-32
2022/10/11 08:49:13;;;;;;;7.37;2.00;;;;;;;20.15;66.85;63327.34;17284267;28;20220;-31
2022/10/11 08:57:33;;;;;;;9.23;2.40;;;;;;;20.15;66.87;63321.56;17581912;22;20735;-33
2022/10/11 09:06:02;;;;;;;5.80;2.50;;;;;;;20.21;66.83;63328.31;17275568;28;20681;-34
2022/10/11 09:14:49;;;;;;;6.23;2.60;;;;;;;20.25;66.91;63330.19;17233204;22;20229;-32
2022/10/11 09:23:23;;;;;;;15.73;3.37;;;;;;;20.31;67.37;63336.38;17203669;28;20571;-32
2022/10/11 09:31:41;;;;;;;15.20;3.60;;;;;;;20.36;67.48;63342.59;17202355;28;20601;-31
2022/10/11 09:40:03;;;;;;;9.47;2.40;;;;;;;20.40;67.50;63349.16;17196178;28;20705;-32
2022/10/11 09:48:25;;;;;;;6.70;3.00;;;;;;;20.49;67.79;63358.75;17198397;28;20584;-32
2022/10/11 09:56:45;;;;;;;8.20;3.03;;;;;;;20.50;67.70;63363.06;17207848;28;20718;-33
2022/10/11 10:05:14;;;;;;;10.73;3.37;;;;;;;20.58;67.56;63372.09;17222820;28;20697;-33
2022/10/11 10:13:42;;;;;;;5.83;2.30;;;;;;;20.65;67.41;63380.00;17210467;28;20819;-32
2022/10/11 10:21:59;;;;;;;7.57;2.70;;;;;;;20.68;67.47;63380.19;17216004;28;20714;-32
2022/10/11 10:30:19;;;;;;;7.40;2.70;;;;;;;20.66;67.68;63377.94;17214594;28;20290;-33
2022/10/11 10:38:40;;;;;;;7.90;3.13;;;;;;;20.66;67.39;63380.56;17220039;28;20701;-33
2022/10/11 10:47:07;;;;;;;7.00;2.83;;;;;;;20.70;67.53;63382.44;17209001;28;21893;-33
2022/10/11 10:55:28;;;;;;;6.67;2.40;;;;;;;20.71;67.31;63386.22;17222047;28;20716;-33
2022/10/11 11:03:54;;;;;;;7.03;2.33;;;;;;;20.80;66.91;63391.09;17213612;28;20759;-33
2022/10/11 11:12:24;;;;;;;6.70;2.27;;;;;;;20.73;66.72;63388.44;17218533;28;20701;-33
2022/10/11 11:21:03;;;;;;;5.60;2.17;;;;;;;20.76;66.81;63386.56;17230449;28;20846;-33
2022/10/11 11:29:43;;;;;;;6.87;2.30;;;;;;;20.85;66.36;63399.38;17221852;28;20585;-33
2022/10/11 11:38:09;;;;;;;8.23;2.73;;;;;;;20.95;66.11;63412.16;17204618;28;20774;-33
2022/10/11 11:46:31;;;;;;;9.07;3.40;;;;;;;20.97;66.39;63412.34;17201696;28;20701;-32
2022/10/11 11:54:56;;;;;;;6.97;2.53;;;;;;;20.95;66.54;63407.44;17218630;28;20272;-32
2022/10/11 12:03:19;;;;;;;9.10;2.20;;;;;;;21.01;66.54;63418.91;17212642;28;20735;-32
2022/10/11 12:11:49;;;;;;;7.20;2.70;;;;;;;21.28;65.51;63441.47;17201100;28;20825;-33
2022/10/11 12:20:16;;;;;;;9.27;2.97;;;;;;;22.03;63.27;63529.72;17209055;28;20224;-32
2022/10/11 12:29:12;;;;;;;8.57;2.33;;;;;;;27.68;46.16;64154.66;17198991;28;20244;-32
2022/10/11 12:37:51;;;;;;;7.87;2.17;;;;;;;26.69;48.11;64042.56;17200664;28;20209;-32
2022/10/11 12:46:33;;;;;;;11.00;2.40;;;;;;;24.46;53.77;63798.25;17204652;28;20317;-33
2022/10/11 12:55:30;;;;;;;8.77;2.73;;;;;;;21.78;62.24;63504.13;17214620;28;20226;-32
2022/10/11 13:03:51;;;;;;;8.70;2.67;;;;;;;21.35;64.05;63457.28;17202987;28;21956;-32
2022/10/11 13:12:16;;;;;;;7.20;2.63;;;;;;;21.12;64.89;63426.63;17207295;28;20264;-33
2022/10/11 13:20:35;;;;;;;6.50;2.20;;;;;;;21.06;65.63;63419.28;17191942;28;20224;-33
2022/10/11 13:28:53;;;;;;;5.60;2.00;;;;;;;20.98;65.89;63410.28;17210507;28;20256;-32
2022/10/11 13:37:16;;;;;;;6.47;2.17;;;;;;;20.96;65.88;63411.19;17201432;28;20209;-33
2022/10/11 13:45:37;;;;;;;9.00;2.57;;;;;;;20.30;62.93;63341.06;17226767;28;20346;-32
2022/10/11 13:53:58;;;;;;;10.07;2.87;;;;;;;20.33;63.08;63341.28;17206767;28;20213;-34
2022/10/11 14:02:20;;;;;;;5.63;2.40;;;;;;;20.35;63.30;63341.47;17220074;28;20238;-32
2022/10/11 14:10:37;;;;;;;14.33;3.30;;;;;;;20.29;63.77;63339.97;17224775;28;20225;-33
2022/10/11 14:19:08;;;;;;;7.33;2.10;;;;;;;20.13;64.63;63321.91;17220873;28;20228;-32
2022/10/11 14:27:28;;;;;;;12.20;2.70;;;;;;;20.26;63.95;63333.94;17226218;28;20200;-34
2022/10/11 14:35:46;;;;;;;7.70;2.60;;;;;;;20.50;63.31;63362.50;17208151;28;20236;-33
2022/10/11 14:44:03;;;;;;;33.10;2.70;;;;;;;20.68;63.34;63377.56;17203908;28;20359;-33
2022/10/11 14:52:21;;;;;;;7.90;2.60;;;;;;;20.72;63.72;63384.13;17210124;28;20225;-32
2022/10/11 15:00:38;;;;;;;9.67;2.77;;;;;;;20.72;64.09;63386.75;17198947;28;20221;-33
2022/10/11 15:08:56;;;;;;;9.30;2.40;;;;;;;20.77;64.15;63387.16;17210596;28;20221;-33
2022/10/11 15:17:13;;;;;;;10.03;2.77;;;;;;;20.79;64.50;63395.22;17200175;28;20201;-33
2022/10/11 15:25:32;;;;;;;7.90;2.43;;;;;;;20.90;64.81;63402.38;17210302;28;20316;-32
2022/10/11 15:33:49;;;;;;;9.57;2.37;;;;;;;20.73;65.01;63387.88;17203630;28;20252;-32
2022/10/11 15:42:07;;;;;;;13.03;2.90;;;;;;;20.78;65.49;63390.91;17198746;28;20241;-32
2022/10/11 15:50:33;;;;;;;11.20;2.30;;;;;;;20.81;65.20;63397.47;17185147;28;20220;-33
2022/10/11 15:58:51;;;;;;;9.33;2.90;;;;;;;20.85;65.66;63399.38;17196308;28;20213;-32
2022/10/11 16:07:08;;;;;;;5.90;2.00;;;;;;;20.85;65.50;63401.41;17201147;28;20202;-33
2022/10/11 16:15:26;;;;;;;12.47;2.50;;;;;;;20.77;65.72;63385.09;17207664;28;20226;-33
2022/10/11 16:23:45;;;;;;;13.60;2.60;;;;;;;20.78;65.81;63391.47;17213665;28;20236;-33
2022/10/11 16:32:03;;;;;;;7.87;2.33;;;;;;;20.78;65.61;63394.09;17207070;28;20222;-32
2022/10/11 16:40:20;;;;;;;5.80;2.30;;;;;;;20.77;65.66;63390.34;17201848;28;20222;-32
2022/10/11 16:48:39;;;;;;;10.83;2.37;;;;;;;20.76;65.75;63386.56;17220688;28;20302;-34
2022/10/11 16:56:56;;;;;;;10.00;3.10;;;;;;;20.78;65.49;63394.09;17209663;28;20202;-33
2022/10/11 17:05:15;;;;;;;4.77;2.07;;;;;;;20.77;65.31;63390.34;17195342;28;20319;-33
2022/10/11 17:13:32;;;;;;;5.10;2.40;;;;;;;20.75;65.49;63390.16;17206647;28;20226;-34
2022/10/11 17:21:50;;;;;;;5.80;2.40;;;;;;;20.76;65.66;63389.19;17202046;28;20225;-34
2022/10/11 17:30:08;;;;;;;7.30;2.43;;;;;;;20.75;65.35;63387.53;17207060;28;20221;-33
2022/10/11 17:38:28;;;;;;;5.00;2.20;;;;;;;20.71;65.71;63386.22;17201813;28;20221;-33
2022/10/11 17:46:45;;;;;;;7.27;2.23;;;;;;;20.72;65.48;63387.31;17211679;28;20225;-32
2022/10/11 17:55:03;;;;;;;7.53;3.37;;;;;;;20.72;65.49;63387.31;17181354;28;20296;-33
2022/10/11 18:03:20;;;;;;;7.03;2.33;;;;;;;20.72;65.53;63387.31;17207964;28;20229;-33
2022/10/11 18:11:38;;;;;;;10.80;2.43;;;;;;;20.71;65.64;63380.94;17196293;28;20299;-33
2022/10/11 18:19:55;;;;;;;5.90;1.90;;;;;;;20.70;65.71;63382.44;17189347;28;20275;-34
2022/10/11 18:28:14;;;;;;;6.40;1.93;;;;;;;20.67;65.71;63377.00;17208244;28;20222;-33
2022/10/11 18:36:32;;;;;;;12.83;2.43;;;;;;;20.75;65.94;63385.47;17214690;28;20194;-33
2022/10/11 18:44:50;;;;;;;6.33;2.17;;;;;;;20.80;65.62;63393.16;17208982;28;20312;-33
2022/10/11 18:53:07;;;;;;;11.23;2.30;;;;;;;20.82;65.85;63396.00;17214719;28;20232;-32
2022/10/11 19:01:27;;;;;;;12.20;6.70;;;;;;;20.78;66.17;63385.66;17213995;28;20233;-32
2022/10/11 19:09:45;;;;;;;23.70;12.63;;;;;;;19.77;67.51;63282.47;17225412;28;20230;-33
2022/10/11 19:18:04;;;;;;;15.43;9.33;;;;;;;19.94;66.49;63298.44;17187575;28;20236;-32
2022/10/11 19:26:23;;;;;;;17.90;9.17;;;;;;;19.71;66.78;63273.66;17208041;28;20252;-32
2022/10/11 19:34:41;;;;;;;25.07;8.13;;;;;;;19.57;67.33;63260.47;17197467;28;20221;-32
2022/10/11 19:42:58;;;;;;;22.37;7.73;;;;;;;20.12;65.66;63321.34;17212767;28;20222;-31
2022/10/11 19:51:18;;;;;;;13.47;6.70;;;;;;;20.39;65.84;63348.03;17214505;28;20214;-31
2022/10/11 19:59:35;;;;;;;15.83;6.67;;;;;;;20.51;66.56;63361.00;17212946;28;20228;-31
2022/10/11 20:07:53;;;;;;;16.67;5.93;;;;;;;20.57;66.84;63365.72;17216565;28;20205;-32
2022/10/11 20:16:12;;;;;;;11.03;5.40;;;;;;;20.60;67.45;63368.53;17206126;28;20194;-32
2022/10/11 20:24:31;;;;;;;13.20;5.93;;;;;;;20.62;67.91;63373.44;17217128;28;20226;-33
2022/10/11 20:32:48;;;;;;;17.00;9.13;;;;;;;18.00;72.51;63090.28;17209787;28;20213;-33
2022/10/11 20:41:08;;;;;;;19.57;8.67;;;;;;;18.67;69.60;63160.81;17197100;28;20222;-32
2022/10/11 20:49:24;;;;;;;20.13;7.20;;;;;;;19.73;66.35;63277.97;17198965;28;20278;-33
2022/10/11 20:57:43;;;;;;;16.00;6.50;;;;;;;19.99;65.71;63301.44;17341921;22;20374;-32
2022/10/11 21:06:00;;;;;;;20.40;6.57;;;;;;;20.10;65.27;63315.91;17273004;28;21319;-33
2022/10/11 21:14:18;;;;;;;15.13;5.63;;;;;;;20.15;65.22;63322.13;17289728;28;20266;-32
2022/10/11 21:22:35;;;;;;;10.93;5.37;;;;;;;20.17;65.35;63321.16;17279307;28;20232;-32
2022/10/11 21:30:53;;;;;;;14.30;6.20;;;;;;;20.15;65.22;63324.19;17281343;28;20217;-32
2022/10/11 21:39:10;;;;;;;10.93;5.87;;;;;;;20.19;65.17;63329.22;17290423;28;20255;-32
2022/10/11 21:47:28;;;;;;;10.23;5.70;;;;;;;20.18;65.34;63324.94;17272089;28;20370;-32
2022/10/11 21:55:46;;;;;;;11.30;5.30;;;;;;;20.17;65.22;63326.41;17298514;28;20354;-32
2022/10/11 22:04:06;;;;;;;11.67;4.97;;;;;;;20.15;65.43;63324.72;17294812;28;20221;-32
2022/10/11 22:12:22;;;;;;;10.40;5.10;;;;;;;20.14;65.40;63323.63;17290717;28;20316;-32
2022/10/11 22:20:41;;;;;;;8.77;4.87;;;;;;;20.15;65.46;63321.56;17293517;28;20229;-32
2022/10/11 22:28:58;;;;;;;11.80;4.93;;;;;;;20.17;65.30;63327.00;17283648;28;20217;-32
2022/10/11 22:37:16;;;;;;;8.80;5.03;;;;;;;20.17;65.31;63323.78;17282716;28;20197;-32
2022/10/11 22:45:33;;;;;;;11.63;4.73;;;;;;;20.15;65.31;63321.56;17280266;28;20229;-32
2022/10/11 22:53:52;;;;;;;7.00;4.43;;;;;;;20.16;65.43;63325.28;17287331;28;20244;-32
2022/10/11 23:02:09;;;;;;;9.37;5.27;;;;;;;20.14;65.24;63321.00;17272818;28;20224;-32
2022/10/11 23:10:27;;;;;;;10.63;4.70;;;;;;;20.15;65.27;63321.56;17290497;28;20240;-32
2022/10/11 23:18:44;;;;;;;9.30;4.60;;;;;;;20.14;65.42;63320.41;17280254;28;20224;-32
2022/10/11 23:27:02;;;;;;;9.50;4.50;;;;;;;20.13;65.38;63321.91;17297118;28;20225;-32
2022/10/11 23:35:19;;;;;;;8.70;4.40;;;;;;;20.13;65.37;63319.28;17279930;28;20217;-32
2022/10/11 23:43:37;;;;;;;7.90;4.23;;;;;;;20.12;65.36;63318.72;17287730;28;20259;-32
2022/10/11 23:51:54;;;;;;;7.60;4.20;;;;;;;20.16;65.22;63320.03;17282078;28;20223;-32
